sensor_id;sensor_type;location;lat;lon;timestamp;temperature;humidity
47857;DHT22;33618;49.972;8.242;2022-10-22T00:01:27;15.50;99.90
47857;DHT22;33618;49.972;8.242;2022-10-22T00:03:54;15.50;99.90
47857;DHT22;33618;49.972;8.242;2022-10-22T00:06:21;15.40;99.90
47857;DHT22;33618;49.972;8.242;2022-10-22T00:08:49;15.40;99.90
47857;DHT22;33618;49.972;8.242;2022-10-22T00:11:18;15.40;99.90
47857;DHT22;33618;49.972;8.242;2022-10-22T00:13:46;15.30;99.90
47857;DHT22;33618;49.972;8.242;2022-10-22T00:16:14;15.30;99.90
47857;DHT22;33618;49.972;8.242;2022-10-22T00:18:41;15.30;99.90
47857;DHT22;33618;49.972;8.242;2022-10-22T00:21:12;15.30;99.90
47857;DHT22;33618;49.972;8.242;2022-10-22T03:13:23;14.60;99.90
47857;DHT22;33618;49.972;8.242;2022-10-22T03:15:50;14.60;99.90
47857;DHT22;33618;49.972;8.242;2022-10-22T03:18:18;14.60;99.90
47857;DHT22;33618;49.972;8.242;2022-10-22T03:20:45;14.50;99.90
47857;DHT22;33618;49.972;8.242;2022-10-22T03:23:14;14.60;99.90
47857;DHT22;33618;49.972;8.242;2022-10-22T03:25:42;14.60;99.90
47857;DHT22;33618;49.972;8.242;2022-10-22T03:28:13;14.60;99.90
47857;DHT22;33618;49.972;8.242;2022-10-22T03:30:41;14.70;99.90
47857;DHT22;33618;49.972;8.242;2022-10-22T03:33:08;14.70;99.90
47857;DHT22;33618;49.972;8.242;2022-10-22T03:35:41;14.70;99.90
47857;DHT22;33618;49.972;8.242;2022-10-22T03:38:09;14.70;99.90
47857;DHT22;33618;49.972;8.242;2022-10-22T03:40:37;14.70;99.90
47857;DHT22;33618;49.972;8.242;2022-10-22T03:43:04;14.80;99.90
47857;DHT22;33618;49.972;8.242;2022-10-22T03:45:31;14.80;99.90
47857;DHT22;33618;49.972;8.242;2022-10-22T03:47:58;14.80;99.90
47857;DHT22;33618;49.972;8.242;2022-10-22T03:50:25;14.90;99.90
47857;DHT22;33618;49.972;8.242;2022-10-22T03:52:52;14.90;99.90
47857;DHT22;33618;49.972;8.242;2022-10-22T03:55:20;15.00;99.90
47857;DHT22;33618;49.972;8.242;2022-10-22T03:57:47;15.00;99.90
47857;DHT22;33618;49.972;8.242;2022-10-22T04:00:15;15.00;99.90
47857;DHT22;33618;49.972;8.242;2022-10-22T04:02:42;15.00;99.90
47857;DHT22;33618;49.972;8.242;2022-10-22T04:05:09;15.00;99.90
47857;DHT22;33618;49.972;8.242;2022-10-22T04:07:37;15.00;99.90
47857;DHT22;33618;49.972;8.242;2022-10-22T04:10:05;15.00;99.90
47857;DHT22;33618;49.972;8.242;2022-10-22T04:12:32;15.00;99.90
47857;DHT22;33618;49.972;8.242;2022-10-22T04:14:59;15.00;99.90
47857;DHT22;33618;49.972;8.242;2022-10-22T04:17:32;15.10;99.90
47857;DHT22;33618;49.972;8.242;2022-10-22T04:20:01;15.10;99.90
47857;DHT22;33618;49.972;8.242;2022-10-22T04:22:29;15.10;99.90
47857;DHT22;33618;49.972;8.242;2022-10-22T04:24:59;15.10;99.90
47857;DHT22;33618;49.972;8.242;2022-10-22T04:27:30;15.10;99.90
47857;DHT22;33618;49.972;8.242;2022-10-22T04:29:58;15.10;99.90
47857;DHT22;33618;49.972;8.242;2022-10-22T04:32:26;15.20;99.90
47857;DHT22;33618;49.972;8.242;2022-10-22T04:34:53;15.20;99.90
47857;DHT22;33618;49.972;8.242;2022-10-22T04:37:21;15.10;99.90
47857;DHT22;33618;49.972;8.242;2022-10-22T04:39:48;15.20;99.90
47857;DHT22;33618;49.972;8.242;2022-10-22T04:42:16;15.20;99.90
47857;DHT22;33618;49.972;8.242;2022-10-22T04:44:43;15.10;99.90
47857;DHT22;33618;49.972;8.242;2022-10-22T04:47:11;15.20;99.90
47857;DHT22;33618;49.972;8.242;2022-10-22T04:49:39;15.20;99.90
47857;DHT22;33618;49.972;8.242;2022-10-22T04:52:06;15.10;99.90
47857;DHT22;33618;49.972;8.242;2022-10-22T04:54:33;15.20;99.90
47857;DHT22;33618;49.972;8.242;2022-10-22T04:57:00;15.20;99.90
47857;DHT22;33618;49.972;8.242;2022-10-22T04:59:28;15.20;99.90
47857;DHT22;33618;49.972;8.242;2022-10-22T05:01:55;15.20;99.90
47857;DHT22;33618;49.972;8.242;2022-10-22T05:04:23;15.20;99.90
47857;DHT22;33618;49.972;8.242;2022-10-22T05:06:50;15.20;99.90
47857;DHT22;33618;49.972;8.242;2022-10-22T05:09:19;15.20;99.90
47857;DHT22;33618;49.972;8.242;2022-10-22T05:11:49;15.20;99.90
47857;DHT22;33618;49.972;8.242;2022-10-22T05:14:19;15.10;99.90
47857;DHT22;33618;49.972;8.242;2022-10-22T05:16:46;15.10;99.90
47857;DHT22;33618;49.972;8.242;2022-10-22T05:19:29;15.10;99.90
47857;DHT22;33618;49.972;8.242;2022-10-22T05:21:59;15.00;99.90
47857;DHT22;33618;49.972;8.242;2022-10-22T05:24:29;15.10;99.90
47857;DHT22;33618;49.972;8.242;2022-10-22T05:26:58;15.10;99.90
47857;DHT22;33618;49.972;8.242;2022-10-22T05:29:29;15.00;99.90
47857;DHT22;33618;49.972;8.242;2022-10-22T05:31:56;15.00;99.90
47857;DHT22;33618;49.972;8.242;2022-10-22T05:34:23;15.00;99.90
47857;DHT22;33618;49.972;8.242;2022-10-22T05:36:50;15.00;99.90
47857;DHT22;33618;49.972;8.242;2022-10-22T05:39:17;15.00;99.90
47857;DHT22;33618;49.972;8.242;2022-10-22T05:41:44;14.90;99.90
47857;DHT22;33618;49.972;8.242;2022-10-22T05:44:12;14.90;99.90
47857;DHT22;33618;49.972;8.242;2022-10-22T05:46:40;14.90;99.90
47857;DHT22;33618;49.972;8.242;2022-10-22T05:49:13;14.80;99.90
47857;DHT22;33618;49.972;8.242;2022-10-22T05:51:41;14.70;99.90
47857;DHT22;33618;49.972;8.242;2022-10-22T05:54:10;14.60;99.90
47857;DHT22;33618;49.972;8.242;2022-10-22T05:56:41;14.50;99.90
47857;DHT22;33618;49.972;8.242;2022-10-22T05:59:10;14.40;99.90
47857;DHT22;33618;49.972;8.242;2022-10-22T06:01:38;14.30;99.90
47857;DHT22;33618;49.972;8.242;2022-10-22T06:04:09;14.30;99.90
47857;DHT22;33618;49.972;8.242;2022-10-22T06:09:16;14.20;99.90
47857;DHT22;33618;49.972;8.242;2022-10-22T06:11:46;14.10;99.90
47857;DHT22;33618;49.972;8.242;2022-10-22T06:14:13;14.10;99.90
47857;DHT22;33618;49.972;8.242;2022-10-22T06:16:40;14.20;99.90
47857;DHT22;33618;49.972;8.242;2022-10-22T06:19:12;14.10;99.90
47857;DHT22;33618;49.972;8.242;2022-10-22T06:21:39;14.10;99.90
47857;DHT22;33618;49.972;8.242;2022-10-22T06:24:07;14.10;99.90
47857;DHT22;33618;49.972;8.242;2022-10-22T06:26:35;14.10;99.90
47857;DHT22;33618;49.972;8.242;2022-10-22T06:29:03;14.10;99.90
47857;DHT22;33618;49.972;8.242;2022-10-22T06:31:30;14.20;99.90
47857;DHT22;33618;49.972;8.242;2022-10-22T06:34:09;14.20;99.90
47857;DHT22;33618;49.972;8.242;2022-10-22T06:36:38;14.20;99.90
47857;DHT22;33618;49.972;8.242;2022-10-22T06:39:13;14.20;99.90
47857;DHT22;33618;49.972;8.242;2022-10-22T06:41:41;14.20;99.90
47857;DHT22;33618;49.972;8.242;2022-10-22T06:44:16;14.20;99.90
47857;DHT22;33618;49.972;8.242;2022-10-22T06:46:43;14.20;99.90
47857;DHT22;33618;49.972;8.242;2022-10-22T06:49:12;14.20;99.90
47857;DHT22;33618;49.972;8.242;2022-10-22T06:51:40;14.20;99.90
47857;DHT22;33618;49.972;8.242;2022-10-22T06:54:07;14.20;99.90
47857;DHT22;33618;49.972;8.242;2022-10-22T06:56:34;14.20;99.90
47857;DHT22;33618;49.972;8.242;2022-10-22T06:59:02;14.10;99.90
47857;DHT22;33618;49.972;8.242;2022-10-22T07:01:31;14.10;99.90
47857;DHT22;33618;49.972;8.242;2022-10-22T07:03:59;14.00;99.90
47857;DHT22;33618;49.972;8.242;2022-10-22T07:06:27;14.00;99.90
47857;DHT22;33618;49.972;8.242;2022-10-22T07:08:56;14.00;99.90
47857;DHT22;33618;49.972;8.242;2022-10-22T07:11:44;14.10;99.90
47857;DHT22;33618;49.972;8.242;2022-10-22T07:14:13;14.10;99.90
47857;DHT22;33618;49.972;8.242;2022-10-22T07:16:40;14.10;99.90
47857;DHT22;33618;49.972;8.242;2022-10-22T07:19:13;14.10;99.90
47857;DHT22;33618;49.972;8.242;2022-10-22T07:21:40;14.10;99.90
47857;DHT22;33618;49.972;8.242;2022-10-22T07:24:07;14.10;99.90
47857;DHT22;33618;49.972;8.242;2022-10-22T07:26:34;14.10;99.90
47857;DHT22;33618;49.972;8.242;2022-10-22T07:29:04;14.10;99.90
47857;DHT22;33618;49.972;8.242;2022-10-22T07:31:31;14.10;99.90
47857;DHT22;33618;49.972;8.242;2022-10-22T07:33:58;14.10;99.90
47857;DHT22;33618;49.972;8.242;2022-10-22T07:36:35;14.10;99.90
47857;DHT22;33618;49.972;8.242;2022-10-22T07:39:11;14.10;99.90
47857;DHT22;33618;49.972;8.242;2022-10-22T07:41:38;14.20;99.90
47857;DHT22;33618;49.972;8.242;2022-10-22T07:44:09;14.20;99.90
47857;DHT22;33618;49.972;8.242;2022-10-22T07:46:38;14.20;99.90
47857;DHT22;33618;49.972;8.242;2022-10-22T07:49:05;14.30;99.90
47857;DHT22;33618;49.972;8.242;2022-10-22T07:51:32;14.40;99.90
47857;DHT22;33618;49.972;8.242;2022-10-22T07:54:00;14.40;99.90
47857;DHT22;33618;49.972;8.242;2022-10-22T07:56:28;14.40;99.90
47857;DHT22;33618;49.972;8.242;2022-10-22T07:58:55;14.40;99.90
47857;DHT22;33618;49.972;8.242;2022-10-22T08:01:22;14.50;99.90
47857;DHT22;33618;49.972;8.242;2022-10-22T08:03:49;14.50;99.90
47857;DHT22;33618;49.972;8.242;2022-10-22T08:06:16;14.50;99.90
47857;DHT22;33618;49.972;8.242;2022-10-22T08:08:43;14.50;99.90
47857;DHT22;33618;49.972;8.242;2022-10-22T08:11:11;14.60;99.90
47857;DHT22;33618;49.972;8.242;2022-10-22T08:13:38;14.70;99.90
47857;DHT22;33618;49.972;8.242;2022-10-22T08:16:11;14.80;99.90
47857;DHT22;33618;49.972;8.242;2022-10-22T08:18:40;15.00;99.90
47857;DHT22;33618;49.972;8.242;2022-10-22T08:21:07;15.40;99.90
47857;DHT22;33618;49.972;8.242;2022-10-22T08:23:35;15.70;99.90
47857;DHT22;33618;49.972;8.242;2022-10-22T08:26:02;16.20;99.90
47857;DHT22;33618;49.972;8.242;2022-10-22T08:28:35;16.80;99.90
47857;DHT22;33618;49.972;8.242;2022-10-22T08:31:05;16.90;99.90
47857;DHT22;33618;49.972;8.242;2022-10-22T08:33:39;17.00;99.90
47857;DHT22;33618;49.972;8.242;2022-10-22T08:36:07;17.00;99.90
47857;DHT22;33618;49.972;8.242;2022-10-22T08:38:35;17.50;99.90
47857;DHT22;33618;49.972;8.242;2022-10-22T08:41:13;17.90;99.90
47857;DHT22;33618;49.972;8.242;2022-10-22T08:49:27;18.20;99.90
47857;DHT22;33618;49.972;8.242;2022-10-22T08:51:59;18.50;99.90
47857;DHT22;33618;49.972;8.242;2022-10-22T08:56:59;18.70;99.90
47857;DHT22;33618;49.972;8.242;2022-10-22T09:05:55;18.40;99.90
47857;DHT22;33618;49.972;8.242;2022-10-22T09:08:25;18.50;99.90
47857;DHT22;33618;49.972;8.242;2022-10-22T09:11:08;18.50;99.90
47857;DHT22;33618;49.972;8.242;2022-10-22T09:13:46;18.60;99.90
47857;DHT22;33618;49.972;8.242;2022-10-22T09:27:36;19.20;99.90
47857;DHT22;33618;49.972;8.242;2022-10-22T09:30:04;19.00;99.90
47857;DHT22;33618;49.972;8.242;2022-10-22T09:32:34;18.80;99.90
47857;DHT22;33618;49.972;8.242;2022-10-22T09:35:01;18.70;99.90
47857;DHT22;33618;49.972;8.242;2022-10-22T09:37:29;18.70;99.90
47857;DHT22;33618;49.972;8.242;2022-10-22T09:39:57;18.50;99.90
47857;DHT22;33618;49.972;8.242;2022-10-22T09:42:31;18.10;99.90
47857;DHT22;33618;49.972;8.242;2022-10-22T09:45:00;18.10;99.90
47857;DHT22;33618;49.972;8.242;2022-10-22T09:47:36;18.10;99.90
47857;DHT22;33618;49.972;8.242;2022-10-22T09:50:44;18.00;99.90
47857;DHT22;33618;49.972;8.242;2022-10-22T09:53:24;18.00;99.90
47857;DHT22;33618;49.972;8.242;2022-10-22T09:55:57;17.90;99.90
47857;DHT22;33618;49.972;8.242;2022-10-22T09:58:39;17.90;99.90
47857;DHT22;33618;49.972;8.242;2022-10-22T10:01:26;17.90;99.90
47857;DHT22;33618;49.972;8.242;2022-10-22T10:03:53;18.00;99.90
47857;DHT22;33618;49.972;8.242;2022-10-22T10:06:33;18.10;99.90
47857;DHT22;33618;49.972;8.242;2022-10-22T10:09:17;18.40;99.90
47857;DHT22;33618;49.972;8.242;2022-10-22T10:17:40;18.30;99.90
47857;DHT22;33618;49.972;8.242;2022-10-22T10:23:11;18.60;99.90
47857;DHT22;33618;49.972;8.242;2022-10-22T10:25:56;18.70;99.90
47857;DHT22;33618;49.972;8.242;2022-10-22T10:34:25;18.40;99.90
47857;DHT22;33618;49.972;8.242;2022-10-22T10:42:35;18.90;99.90
47857;DHT22;33618;49.972;8.242;2022-10-22T10:45:16;19.00;99.90
47857;DHT22;33618;49.972;8.242;2022-10-22T10:51:06;18.80;99.90
47857;DHT22;33618;49.972;8.242;2022-10-22T11:07:19;18.90;99.90
47857;DHT22;33618;49.972;8.242;2022-10-22T11:12:45;18.90;99.90
47857;DHT22;33618;49.972;8.242;2022-10-22T11:15:30;19.00;99.90
47857;DHT22;33618;49.972;8.242;2022-10-22T11:18:21;18.90;99.90
47857;DHT22;33618;49.972;8.242;2022-10-22T11:23:47;19.20;99.90
47857;DHT22;33618;49.972;8.242;2022-10-22T11:26:41;19.30;99.90
47857;DHT22;33618;49.972;8.242;2022-10-22T11:29:16;19.30;99.90
47857;DHT22;33618;49.972;8.242;2022-10-22T11:31:55;19.60;99.90
47857;DHT22;33618;49.972;8.242;2022-10-22T11:37:01;19.70;99.90
47857;DHT22;33618;49.972;8.242;2022-10-22T11:42:10;20.40;99.90
47857;DHT22;33618;49.972;8.242;2022-10-22T11:50:55;20.50;99.90
47857;DHT22;33618;49.972;8.242;2022-10-22T11:53:36;20.80;99.90
47857;DHT22;33618;49.972;8.242;2022-10-22T11:58:41;21.60;99.20
47857;DHT22;33618;49.972;8.242;2022-10-22T12:03:43;22.10;96.90
47857;DHT22;33618;49.972;8.242;2022-10-22T12:06:16;22.10;95.90
47857;DHT22;33618;49.972;8.242;2022-10-22T12:11:22;22.40;95.50
47857;DHT22;33618;49.972;8.242;2022-10-22T12:17:09;22.50;95.30
47857;DHT22;33618;49.972;8.242;2022-10-22T12:19:48;22.80;93.80
47857;DHT22;33618;49.972;8.242;2022-10-22T12:22:31;22.70;93.40
47857;DHT22;33618;49.972;8.242;2022-10-22T12:25:01;22.80;93.00
47857;DHT22;33618;49.972;8.242;2022-10-22T12:27:37;23.10;92.50
47857;DHT22;33618;49.972;8.242;2022-10-22T12:32:44;23.60;90.80
47857;DHT22;33618;49.972;8.242;2022-10-22T12:35:17;23.30;91.00
47857;DHT22;33618;49.972;8.242;2022-10-22T12:37:47;23.50;91.40
47857;DHT22;33618;49.972;8.242;2022-10-22T12:40:16;23.70;91.20
47857;DHT22;33618;49.972;8.242;2022-10-22T12:42:52;23.90;90.90
47857;DHT22;33618;49.972;8.242;2022-10-22T12:45:19;23.90;90.30
47857;DHT22;33618;49.972;8.242;2022-10-22T12:47:47;24.00;91.10
47857;DHT22;33618;49.972;8.242;2022-10-22T12:50:24;24.00;90.70
47857;DHT22;33618;49.972;8.242;2022-10-22T12:52:55;23.70;90.10
47857;DHT22;33618;49.972;8.242;2022-10-22T12:55:22;22.80;91.30
47857;DHT22;33618;49.972;8.242;2022-10-22T12:57:53;22.20;92.30
47857;DHT22;33618;49.972;8.242;2022-10-22T13:00:26;21.50;93.30
47857;DHT22;33618;49.972;8.242;2022-10-22T13:02:55;21.20;94.20
47857;DHT22;33618;49.972;8.242;2022-10-22T13:05:29;21.10;95.70
47857;DHT22;33618;49.972;8.242;2022-10-22T13:08:08;21.00;95.50
47857;DHT22;33618;49.972;8.242;2022-10-22T13:10:40;21.30;95.40
47857;DHT22;33618;49.972;8.242;2022-10-22T13:16:18;22.60;93.30
47857;DHT22;33618;49.972;8.242;2022-10-22T13:18:46;23.50;92.20
47857;DHT22;33618;49.972;8.242;2022-10-22T13:21:33;23.70;91.50
47857;DHT22;33618;49.972;8.242;2022-10-22T13:24:01;23.90;90.30
47857;DHT22;33618;49.972;8.242;2022-10-22T13:26:34;24.40;89.70
47857;DHT22;33618;49.972;8.242;2022-10-22T13:29:08;23.90;89.40
47857;DHT22;33618;49.972;8.242;2022-10-22T13:31:37;24.10;90.20
47857;DHT22;33618;49.972;8.242;2022-10-22T13:34:14;24.30;89.20
47857;DHT22;33618;49.972;8.242;2022-10-22T13:36:42;24.50;89.90
47857;DHT22;33618;49.972;8.242;2022-10-22T13:39:20;24.30;89.30
47857;DHT22;33618;49.972;8.242;2022-10-22T13:41:48;24.20;89.10
47857;DHT22;33618;49.972;8.242;2022-10-22T13:44:18;24.50;89.10
47857;DHT22;33618;49.972;8.242;2022-10-22T13:46:46;24.20;87.20
47857;DHT22;33618;49.972;8.242;2022-10-22T13:49:16;24.40;87.10
47857;DHT22;33618;49.972;8.242;2022-10-22T13:51:44;24.80;89.10
47857;DHT22;33618;49.972;8.242;2022-10-22T13:54:15;24.90;86.30
47857;DHT22;33618;49.972;8.242;2022-10-22T13:56:43;23.90;87.50
47857;DHT22;33618;49.972;8.242;2022-10-22T13:59:11;22.90;88.70
47857;DHT22;33618;49.972;8.242;2022-10-22T14:01:38;22.50;90.30
47857;DHT22;33618;49.972;8.242;2022-10-22T14:04:07;21.90;90.90
47857;DHT22;33618;49.972;8.242;2022-10-22T14:06:37;21.50;92.00
47857;DHT22;33618;49.972;8.242;2022-10-22T14:09:06;21.20;93.60
47857;DHT22;33618;49.972;8.242;2022-10-22T14:11:41;20.70;95.50
47857;DHT22;33618;49.972;8.242;2022-10-22T14:14:08;20.50;98.10
47857;DHT22;33618;49.972;8.242;2022-10-22T14:16:40;20.20;98.30
47857;DHT22;33618;49.972;8.242;2022-10-22T14:19:15;20.20;99.30
47857;DHT22;33618;49.972;8.242;2022-10-22T14:21:42;20.60;99.80
47857;DHT22;33618;49.972;8.242;2022-10-22T14:24:10;21.50;98.10
47857;DHT22;33618;49.972;8.242;2022-10-22T14:26:46;21.90;97.90
47857;DHT22;33618;49.972;8.242;2022-10-22T14:29:13;22.20;96.30
47857;DHT22;33618;49.972;8.242;2022-10-22T14:31:45;22.30;95.90
47857;DHT22;33618;49.972;8.242;2022-10-22T14:34:14;21.80;96.10
47857;DHT22;33618;49.972;8.242;2022-10-22T14:36:41;21.30;98.00
47857;DHT22;33618;49.972;8.242;2022-10-22T14:39:10;21.30;97.50
47857;DHT22;33618;49.972;8.242;2022-10-22T14:41:37;21.70;96.70
47857;DHT22;33618;49.972;8.242;2022-10-22T14:44:04;22.00;95.70
47857;DHT22;33618;49.972;8.242;2022-10-22T14:46:31;22.40;95.30
47857;DHT22;33618;49.972;8.242;2022-10-22T14:48:58;22.70;94.00
47857;DHT22;33618;49.972;8.242;2022-10-22T14:51:25;22.80;94.20
47857;DHT22;33618;49.972;8.242;2022-10-22T14:53:52;22.90;93.80
47857;DHT22;33618;49.972;8.242;2022-10-22T14:56:19;23.40;92.20
47857;DHT22;33618;49.972;8.242;2022-10-22T14:58:49;23.30;92.20
47857;DHT22;33618;49.972;8.242;2022-10-22T15:01:16;23.30;92.50
47857;DHT22;33618;49.972;8.242;2022-10-22T15:03:43;23.10;91.30
47857;DHT22;33618;49.972;8.242;2022-10-22T15:06:11;23.30;92.00
47857;DHT22;33618;49.972;8.242;2022-10-22T15:08:38;23.50;92.00
47857;DHT22;33618;49.972;8.242;2022-10-22T15:11:08;23.50;91.00
47857;DHT22;33618;49.972;8.242;2022-10-22T15:13:37;23.50;90.70
47857;DHT22;33618;49.972;8.242;2022-10-22T15:16:06;23.30;91.30
47857;DHT22;33618;49.972;8.242;2022-10-22T15:18:34;23.70;91.40
47857;DHT22;33618;49.972;8.242;2022-10-22T15:21:06;23.60;90.70
47857;DHT22;33618;49.972;8.242;2022-10-22T15:23:35;24.00;91.60
47857;DHT22;33618;49.972;8.242;2022-10-22T15:26:02;23.90;90.80
47857;DHT22;33618;49.972;8.242;2022-10-22T15:28:29;23.70;90.60
47857;DHT22;33618;49.972;8.242;2022-10-22T15:30:58;23.40;92.30
47857;DHT22;33618;49.972;8.242;2022-10-22T15:33:26;23.50;91.60
47857;DHT22;33618;49.972;8.242;2022-10-22T15:35:54;23.50;91.90
47857;DHT22;33618;49.972;8.242;2022-10-22T15:38:28;23.30;92.10
47857;DHT22;33618;49.972;8.242;2022-10-22T15:41:05;23.30;92.70
47857;DHT22;33618;49.972;8.242;2022-10-22T15:43:33;23.00;93.30
47857;DHT22;33618;49.972;8.242;2022-10-22T15:46:15;22.70;95.70
47857;DHT22;33618;49.972;8.242;2022-10-22T15:48:42;22.50;96.60
47857;DHT22;33618;49.972;8.242;2022-10-22T15:51:11;22.20;97.50
47857;DHT22;33618;49.972;8.242;2022-10-22T15:53:39;21.80;96.40
47857;DHT22;33618;49.972;8.242;2022-10-22T15:56:06;21.60;99.90
47857;DHT22;33618;49.972;8.242;2022-10-22T15:58:34;21.30;99.90
47857;DHT22;33618;49.972;8.242;2022-10-22T16:01:09;21.00;99.90
47857;DHT22;33618;49.972;8.242;2022-10-22T16:03:36;20.90;99.90
47857;DHT22;33618;49.972;8.242;2022-10-22T16:06:04;20.60;99.40
47857;DHT22;33618;49.972;8.242;2022-10-22T16:08:32;20.40;99.90
47857;DHT22;33618;49.972;8.242;2022-10-22T16:10:59;20.10;99.90
47857;DHT22;33618;49.972;8.242;2022-10-22T16:13:25;20.10;99.90
47857;DHT22;33618;49.972;8.242;2022-10-22T16:15:52;19.80;99.90
47857;DHT22;33618;49.972;8.242;2022-10-22T16:18:19;19.70;99.90
47857;DHT22;33618;49.972;8.242;2022-10-22T16:20:47;19.50;99.90
47857;DHT22;33618;49.972;8.242;2022-10-22T16:23:14;19.30;99.90
47857;DHT22;33618;49.972;8.242;2022-10-22T16:25:45;19.10;99.90
47857;DHT22;33618;49.972;8.242;2022-10-22T16:28:12;19.00;99.90
47857;DHT22;33618;49.972;8.242;2022-10-22T16:30:39;18.80;99.90
47857;DHT22;33618;49.972;8.242;2022-10-22T16:33:09;18.70;99.90
47857;DHT22;33618;49.972;8.242;2022-10-22T16:35:42;18.50;99.90
47857;DHT22;33618;49.972;8.242;2022-10-22T16:38:10;18.40;99.90
47857;DHT22;33618;49.972;8.242;2022-10-22T16:40:37;18.40;99.90
47857;DHT22;33618;49.972;8.242;2022-10-22T16:43:05;18.30;99.90
47857;DHT22;33618;49.972;8.242;2022-10-22T16:45:31;18.20;99.90
47857;DHT22;33618;49.972;8.242;2022-10-22T16:47:58;18.20;99.90
47857;DHT22;33618;49.972;8.242;2022-10-22T16:50:25;18.20;99.90
47857;DHT22;33618;49.972;8.242;2022-10-22T16:52:52;17.90;99.90
47857;DHT22;33618;49.972;8.242;2022-10-22T16:55:19;17.80;99.90
47857;DHT22;33618;49.972;8.242;2022-10-22T16:57:50;17.70;99.90
47857;DHT22;33618;49.972;8.242;2022-10-22T17:00:18;17.40;99.90
47857;DHT22;33618;49.972;8.242;2022-10-22T17:02:50;17.30;99.90
47857;DHT22;33618;49.972;8.242;2022-10-22T17:05:18;17.40;99.90
47857;DHT22;33618;49.972;8.242;2022-10-22T17:07:45;17.30;99.90
47857;DHT22;33618;49.972;8.242;2022-10-22T17:10:12;17.10;99.90
47857;DHT22;33618;49.972;8.242;2022-10-22T17:12:39;17.00;99.90
47857;DHT22;33618;49.972;8.242;2022-10-22T17:15:07;16.90;99.90
47857;DHT22;33618;49.972;8.242;2022-10-22T17:17:34;16.80;99.90
47857;DHT22;33618;49.972;8.242;2022-10-22T17:20:01;16.80;99.90
47857;DHT22;33618;49.972;8.242;2022-10-22T17:22:29;16.80;99.90
47857;DHT22;33618;49.972;8.242;2022-10-22T17:25:14;16.70;99.90
47857;DHT22;33618;49.972;8.242;2022-10-22T17:27:42;16.50;99.90
47857;DHT22;33618;49.972;8.242;2022-10-22T17:30:14;16.60;99.90
47857;DHT22;33618;49.972;8.242;2022-10-22T17:32:41;16.50;99.90
47857;DHT22;33618;49.972;8.242;2022-10-22T17:35:09;16.40;99.90
47857;DHT22;33618;49.972;8.242;2022-10-22T17:37:36;16.40;99.90
47857;DHT22;33618;49.972;8.242;2022-10-22T17:40:04;16.40;99.90
47857;DHT22;33618;49.972;8.242;2022-10-22T17:42:31;16.30;99.90
47857;DHT22;33618;49.972;8.242;2022-10-22T17:44:59;16.30;99.90
47857;DHT22;33618;49.972;8.242;2022-10-22T17:47:26;16.30;99.90
47857;DHT22;33618;49.972;8.242;2022-10-22T17:49:53;16.20;99.90
47857;DHT22;33618;49.972;8.242;2022-10-22T17:52:20;16.20;99.90
47857;DHT22;33618;49.972;8.242;2022-10-22T17:54:48;16.10;99.90
47857;DHT22;33618;49.972;8.242;2022-10-22T17:57:16;16.10;99.90
47857;DHT22;33618;49.972;8.242;2022-10-22T17:59:43;16.00;99.90
47857;DHT22;33618;49.972;8.242;2022-10-22T18:02:15;15.90;99.90
47857;DHT22;33618;49.972;8.242;2022-10-22T18:04:43;15.90;99.90
47857;DHT22;33618;49.972;8.242;2022-10-22T18:07:10;15.90;99.90
47857;DHT22;33618;49.972;8.242;2022-10-22T18:09:38;15.80;99.90
47857;DHT22;33618;49.972;8.242;2022-10-22T18:12:06;15.70;99.90
47857;DHT22;33618;49.972;8.242;2022-10-22T18:14:33;15.60;99.90
47857;DHT22;33618;49.972;8.242;2022-10-22T18:17:01;15.60;99.90
47857;DHT22;33618;49.972;8.242;2022-10-22T18:19:29;15.60;99.90
47857;DHT22;33618;49.972;8.242;2022-10-22T18:21:57;15.60;99.90
47857;DHT22;33618;49.972;8.242;2022-10-22T18:24:24;15.50;99.90
47857;DHT22;33618;49.972;8.242;2022-10-22T18:26:51;15.50;99.90
47857;DHT22;33618;49.972;8.242;2022-10-22T18:29:19;15.40;99.90
47857;DHT22;33618;49.972;8.242;2022-10-22T18:31:47;15.40;99.90
47857;DHT22;33618;49.972;8.242;2022-10-22T18:34:15;15.30;99.90
47857;DHT22;33618;49.972;8.242;2022-10-22T18:36:47;15.30;99.90
47857;DHT22;33618;49.972;8.242;2022-10-22T18:39:14;15.30;99.90
47857;DHT22;33618;49.972;8.242;2022-10-22T18:41:42;15.20;99.90
47857;DHT22;33618;49.972;8.242;2022-10-22T18:44:12;15.20;99.90
47857;DHT22;33618;49.972;8.242;2022-10-22T18:46:40;15.10;99.90
47857;DHT22;33618;49.972;8.242;2022-10-22T18:49:07;15.10;99.90
47857;DHT22;33618;49.972;8.242;2022-10-22T18:51:39;15.10;99.90
47857;DHT22;33618;49.972;8.242;2022-10-22T18:54:06;15.10;99.90
47857;DHT22;33618;49.972;8.242;2022-10-22T18:56:48;15.10;99.90
47857;DHT22;33618;49.972;8.242;2022-10-22T18:59:20;15.00;99.90
47857;DHT22;33618;49.972;8.242;2022-10-22T19:01:48;15.00;99.90
47857;DHT22;33618;49.972;8.242;2022-10-22T19:04:17;14.90;99.90
47857;DHT22;33618;49.972;8.242;2022-10-22T19:06:45;14.80;99.90
47857;DHT22;33618;49.972;8.242;2022-10-22T19:09:13;14.80;99.90
47857;DHT22;33618;49.972;8.242;2022-10-22T19:11:42;14.80;99.90
47857;DHT22;33618;49.972;8.242;2022-10-22T19:14:10;14.90;99.90
47857;DHT22;33618;49.972;8.242;2022-10-22T19:16:38;14.80;99.90
47857;DHT22;33618;49.972;8.242;2022-10-22T19:19:06;14.80;99.90
47857;DHT22;33618;49.972;8.242;2022-10-22T19:21:34;14.80;99.90
47857;DHT22;33618;49.972;8.242;2022-10-22T19:24:01;14.80;99.90
47857;DHT22;33618;49.972;8.242;2022-10-22T19:26:29;14.70;99.90
47857;DHT22;33618;49.972;8.242;2022-10-22T19:28:58;14.80;99.90
47857;DHT22;33618;49.972;8.242;2022-10-22T19:31:26;14.80;99.90
47857;DHT22;33618;49.972;8.242;2022-10-22T19:33:57;14.80;99.90
47857;DHT22;33618;49.972;8.242;2022-10-22T19:36:25;14.70;99.90
47857;DHT22;33618;49.972;8.242;2022-10-22T19:38:57;14.60;99.90
47857;DHT22;33618;49.972;8.242;2022-10-22T19:41:26;14.60;99.90
47857;DHT22;33618;49.972;8.242;2022-10-22T19:43:54;14.50;99.90
47857;DHT22;33618;49.972;8.242;2022-10-22T19:46:22;14.40;99.90
47857;DHT22;33618;49.972;8.242;2022-10-22T19:48:52;14.40;99.90
47857;DHT22;33618;49.972;8.242;2022-10-22T19:51:27;14.40;99.90
47857;DHT22;33618;49.972;8.242;2022-10-22T19:54:06;14.40;99.90
47857;DHT22;33618;49.972;8.242;2022-10-22T19:56:35;14.40;99.90
47857;DHT22;33618;49.972;8.242;2022-10-22T19:59:06;14.30;99.90
47857;DHT22;33618;49.972;8.242;2022-10-22T20:01:34;14.40;99.90
47857;DHT22;33618;49.972;8.242;2022-10-22T20:04:01;14.40;99.90
47857;DHT22;33618;49.972;8.242;2022-10-22T20:06:29;14.20;99.90
47857;DHT22;33618;49.972;8.242;2022-10-22T20:08:56;14.20;99.90
47857;DHT22;33618;49.972;8.242;2022-10-22T20:11:26;14.20;99.90
47857;DHT22;33618;49.972;8.242;2022-10-22T20:13:54;14.20;99.90
47857;DHT22;33618;49.972;8.242;2022-10-22T20:16:24;14.20;99.90